Lyon, France

6:03 AM CEST on March 31, 2015 (GMT +0200)
Bron | | Change Station
CLOSE
Current Station
Airport
Location: Lyon Bron,
Elevation: 659 ft
Nearby Weather Stations

Elev 659 ft 45.73 °N, 4.94 °E | Updated 33 minutes ago

Mostly Cloudy
Mostly Cloudy
54 °F
Feels Like 54 °F
N
10
Wind Variable Wind from South

Today
High -- | Low -- °F
--% Chance of Precip.
Yesterday
High -- | Low -- °F
Precip. -- in
7:23 AM 8:07 PM
Waxing Gibbous, 84% visible
Pressure 30.06 in
Visibility 6.2 miles
Clouds Mostly Cloudy 4900 ft
Mostly Cloudy 7600 ft
Mostly Cloudy 9400 ft
Dew Point 50 °F
Humidity 88%
Rainfall 0.00 in
Snow Depth Not available.
UV 0 out of 12
Pollen Not available.
Air Quality Not available.
Flu Activity Not available.
METAR LFLY 310330Z AUTO 19009KT 9999 BKN049 BKN076 BKN094 12/10 Q1018

More Conditions Fewer Conditions

Pressure 30.06 in
Visibility 6.2 miles
Clouds Mostly Cloudy 4900 ft
Mostly Cloudy 7600 ft
Mostly Cloudy 9400 ft
Dew Point 50 °F
Humidity 88%
Rainfall 0.00 in
Snow Depth Not available.
UV 0 out of 12
Pollen Not available.
Air Quality Not available.
Flu Activity Not available.
METAR LFLY 310330Z AUTO 19009KT 9999 BKN049 BKN076 BKN094 12/10 Q1018

More Conditions Fewer Conditions

10-Day Weather Forecast

Almanac

Astronomy

Mar. 31, 2015 Rise Set
Actual Time
Civil Twilight
Nautical Twilight
Astronomical Twilight
Moon
Length of Visible Light
Length of Day
Tomorrow will be .
, % of the Moon is Illuminated

Today's Extremes

Country Highs Country Lows

Community

WunderPhotos

Upload Photos

1,809,715 photos uploaded!

WunderBlogs® & News

Nearby

Air Quality

  Air Quality AQ Index Pollutant
Not available.

Snow Depth

Station Depth Elevation

Earthquake Activity

City Distance Mag. Time & Date
Minimum magnitude displayed is 2.5.

Coastal Water Temperatures

Place Temperature

Stations

Nearby Weather Stations

Station Location Temp. Windchill Dew Point Humidity Wind Precip. Elev Updated Type